createdAt,value
2014-06-21T00:00:04.368Z,13.7
2014-06-21T00:00:22.774Z,13.7
2014-06-21T00:00:41.165Z,13.7
2014-06-21T00:00:59.572Z,13.7
2014-06-21T00:01:17.963Z,13.8
2014-06-21T00:01:36.369Z,13.8
2014-06-21T00:01:54.759Z,13.8
2014-06-21T00:02:13.168Z,13.8
2014-06-21T00:02:31.558Z,13.8
2014-06-21T00:02:49.949Z,13.8
2014-06-21T00:03:08.357Z,13.8
2014-06-21T00:03:26.748Z,13.8
2014-06-21T00:03:45.154Z,13.9
2014-06-21T00:04:03.547Z,13.9
2014-06-21T00:04:21.953Z,13.9
2014-06-21T00:04:40.359Z,13.9
2014-06-21T00:04:58.752Z,13.9
2014-06-21T00:05:17.158Z,13.9
2014-06-21T00:05:35.549Z,13.9
2014-06-21T00:05:53.955Z,13.9
2014-06-21T00:06:12.348Z,13.9
2014-06-21T00:06:30.754Z,13.9
2014-06-21T00:06:49.144Z,13.9
2014-06-21T00:07:07.537Z,13.9
2014-06-21T00:07:25.943Z,13.9
2014-06-21T00:07:44.334Z,13.8
2014-06-21T00:08:02.742Z,13.8
2014-06-21T00:08:21.133Z,13.8
2014-06-21T00:08:39.539Z,13.8
2014-06-21T00:08:57.945Z,13.8
2014-06-21T00:09:16.338Z,13.8
2014-06-21T00:09:34.744Z,13.7
2014-06-21T00:09:53.150Z,13.7
2014-06-21T00:10:11.543Z,13.7
2014-06-21T00:10:29.949Z,13.7
2014-06-21T00:10:48.340Z,13.7
2014-06-21T00:11:06.748Z,13.7
2014-06-21T00:11:25.139Z,13.7
2014-06-21T00:11:43.545Z,13.7
2014-06-21T00:12:01.952Z,13.7
2014-06-21T00:12:20.343Z,13.7
2014-06-21T00:12:38.734Z,13.7
2014-06-21T00:12:57.140Z,13.7
2014-06-21T00:13:15.533Z,13.7
2014-06-21T00:13:33.940Z,13.7
2014-06-21T00:13:52.330Z,13.7
2014-06-21T00:14:10.722Z,13.7
2014-06-21T00:14:29.128Z,13.7
2014-06-21T00:14:47.534Z,13.7
2014-06-21T00:15:05.927Z,13.7
2014-06-21T00:15:24.333Z,13.7
2014-06-21T00:15:42.724Z,13.6
2014-06-21T00:16:01.115Z,13.6
2014-06-21T00:16:19.523Z,13.6
2014-06-21T00:16:37.929Z,13.6
2014-06-21T00:16:56.320Z,13.5
2014-06-21T00:17:14.728Z,13.5
2014-06-21T00:17:33.119Z,13.5
2014-06-21T00:17:51.525Z,13.5
2014-06-21T00:18:09.931Z,13.5
2014-06-21T00:18:28.325Z,13.4
2014-06-21T00:18:46.731Z,13.4
2014-06-21T00:19:05.122Z,13.4
2014-06-21T00:19:23.530Z,13.4
2014-06-21T00:19:41.920Z,13.4
2014-06-21T00:20:00.327Z,13.4
2014-06-21T00:20:18.733Z,13.4
2014-06-21T00:20:37.126Z,13.4
2014-06-21T00:20:55.516Z,13.4
2014-06-21T00:21:13.922Z,13.3
2014-06-21T00:21:32.331Z,13.3
2014-06-21T00:21:50.721Z,13.3
2014-06-21T00:22:09.128Z,13.3
2014-06-21T00:22:27.518Z,13.3
2014-06-21T00:22:45.925Z,13.3
2014-06-21T00:23:04.316Z,13.2
2014-06-21T00:23:22.722Z,13.2
2014-06-21T00:23:41.115Z,13.2
2014-06-21T00:23:59.506Z,13.2
2014-06-21T00:24:17.912Z,13.2
2014-06-21T00:24:36.302Z,13.2
2014-06-21T00:24:54.712Z,13.2
2014-06-21T00:25:13.102Z,13.2
2014-06-21T00:25:31.509Z,13.2
2014-06-21T00:25:49.901Z,13.1
2014-06-21T00:26:08.307Z,13.1
2014-06-21T00:26:26.698Z,13.2
2014-06-21T00:26:45.104Z,13.2
2014-06-21T00:27:03.497Z,13.2
2014-06-21T00:27:21.903Z,13.2
2014-06-21T00:27:40.294Z,13.2
2014-06-21T00:27:58.702Z,13.2
2014-06-21T00:28:17.093Z,13.2
2014-06-21T00:28:35.499Z,13.2
2014-06-21T00:28:53.890Z,13.2
2014-06-21T00:29:12.298Z,13.2
2014-06-21T00:29:30.688Z,13.1
2014-06-21T00:29:49.079Z,13.1
2014-06-21T00:30:07.487Z,13.1
2014-06-21T00:30:25.878Z,13.1
2014-06-21T00:30:44.284Z,13.1
2014-06-21T00:31:02.677Z,13.1
2014-06-21T00:31:21.083Z,13.1
2014-06-21T00:31:39.474Z,13.1
2014-06-21T00:31:57.880Z,13.1
2014-06-21T00:32:16.273Z,13.1
2014-06-21T00:32:34.679Z,13.1
2014-06-21T00:32:53.069Z,13
2014-06-21T00:33:11.462Z,13
2014-06-21T00:33:29.868Z,13
2014-06-21T00:33:48.259Z,13
2014-06-21T00:34:06.652Z,13
2014-06-21T00:34:25.058Z,13
2014-06-21T00:34:43.448Z,13
2014-06-21T00:35:01.841Z,13
2014-06-21T00:35:20.247Z,13
2014-06-21T00:35:38.638Z,13
2014-06-21T00:35:57.029Z,13
2014-06-21T00:36:15.437Z,13
2014-06-21T00:36:33.827Z,13
2014-06-21T00:36:52.218Z,13
2014-06-21T00:37:10.611Z,13
2014-06-21T00:37:29.017Z,13
2014-06-21T00:37:47.408Z,13
2014-06-21T00:38:05.815Z,13
2014-06-21T00:38:24.205Z,13
2014-06-21T00:38:42.596Z,13
2014-06-21T00:39:01.004Z,13
2014-06-21T00:39:19.395Z,13
2014-06-21T00:39:37.786Z,13
2014-06-21T00:39:56.192Z,13
2014-06-21T00:40:14.584Z,13.1
2014-06-21T00:40:32.991Z,13.1
2014-06-21T00:40:51.381Z,13.1
2014-06-21T00:41:09.774Z,13.1
2014-06-21T00:41:28.180Z,13.1
2014-06-21T00:41:46.571Z,13.1
2014-06-21T00:42:04.979Z,13.1
2014-06-21T00:42:23.370Z,13.1
2014-06-21T00:42:41.776Z,13.2
2014-06-21T00:43:00.167Z,13.2
2014-06-21T00:43:18.575Z,13.2
2014-06-21T00:43:36.965Z,13.2
2014-06-21T00:43:55.372Z,13.2
2014-06-21T00:44:13.763Z,13.2
2014-06-21T00:44:32.170Z,13.2
2014-06-21T00:44:50.560Z,13.2
2014-06-21T00:45:08.968Z,13.3
2014-06-21T00:45:27.359Z,13.3
2014-06-21T00:45:45.765Z,13.3
2014-06-21T00:46:04.159Z,13.3
2014-06-21T00:46:22.565Z,13.3
2014-06-21T00:46:40.956Z,13.3
2014-06-21T00:46:59.346Z,13.3
2014-06-21T00:47:17.755Z,13.3
2014-06-21T00:47:36.161Z,13.3
2014-06-21T00:47:54.552Z,13.3
2014-06-21T00:48:12.960Z,13.3
2014-06-21T00:48:31.350Z,13.3
2014-06-21T00:48:49.772Z,13.4
2014-06-21T00:49:08.149Z,13.4
2014-06-21T00:49:26.556Z,13.4
2014-06-21T00:49:44.946Z,13.4
2014-06-21T00:50:03.352Z,13.3
2014-06-21T00:50:21.745Z,13.4
2014-06-21T00:50:40.151Z,13.3
2014-06-21T00:50:58.542Z,13.3
2014-06-21T00:51:16.950Z,13.3
2014-06-21T00:51:35.341Z,13.3
2014-06-21T00:51:53.747Z,13.3
2014-06-21T00:52:12.153Z,13.3
2014-06-21T00:52:30.546Z,13.3
2014-06-21T00:52:48.952Z,13.3
2014-06-21T00:53:07.343Z,13.3
2014-06-21T00:53:25.751Z,13.3
2014-06-21T00:53:44.142Z,13.3
2014-06-21T00:54:02.532Z,13.3
2014-06-21T00:54:20.939Z,13.3
2014-06-21T00:54:39.331Z,13.3
2014-06-21T00:54:57.737Z,13.3
2014-06-21T00:55:16.128Z,13.3
2014-06-21T00:55:34.536Z,13.3
2014-06-21T00:55:52.927Z,13.3
2014-06-21T00:56:11.333Z,13.3
2014-06-21T00:56:29.724Z,13.3
2014-06-21T00:56:48.132Z,13.3
2014-06-21T00:57:06.538Z,13.3
2014-06-21T00:57:24.945Z,13.3
2014-06-21T00:57:43.337Z,13.3
2014-06-21T00:58:01.728Z,13.3
2014-06-21T00:58:20.134Z,13.3
2014-06-21T00:58:38.525Z,13.3
2014-06-21T00:58:56.933Z,13.3
2014-06-21T00:59:15.527Z,13.3
2014-06-21T00:59:33.730Z,13.3
2014-06-21T00:59:52.122Z,13.2
2014-06-21T01:00:10.529Z,13.2
2014-06-21T01:00:28.919Z,13.2
2014-06-21T01:00:47.326Z,13.1
2014-06-21T01:01:05.734Z,13.1
2014-06-21T01:01:24.124Z,13
2014-06-21T01:01:42.515Z,13
2014-06-21T01:02:00.923Z,12.9
2014-06-21T01:02:19.314Z,12.9
2014-06-21T01:02:37.720Z,12.8
2014-06-21T01:02:56.111Z,12.8
2014-06-21T01:03:14.519Z,12.8
2014-06-21T01:03:32.910Z,12.7
2014-06-21T01:03:51.300Z,12.7
2014-06-21T01:04:09.709Z,12.7
2014-06-21T01:04:28.115Z,12.7
2014-06-21T01:04:46.505Z,12.7
2014-06-21T01:05:04.915Z,12.7
2014-06-21T01:05:23.305Z,12.7
2014-06-21T01:05:41.696Z,12.7
2014-06-21T01:06:00.102Z,12.7
2014-06-21T01:06:18.494Z,12.8
2014-06-21T01:06:36.900Z,12.8
2014-06-21T01:06:55.291Z,12.8
2014-06-21T01:07:13.684Z,12.8
2014-06-21T01:07:32.091Z,12.8
2014-06-21T01:07:50.497Z,12.8
2014-06-21T01:08:08.888Z,12.9
2014-06-21T01:08:27.279Z,12.8
2014-06-21T01:08:45.685Z,12.9
2014-06-21T01:09:04.094Z,12.9
2014-06-21T01:09:22.484Z,12.9
2014-06-21T01:09:40.890Z,12.9
2014-06-21T01:09:59.281Z,12.9
2014-06-21T01:10:17.689Z,12.9
2014-06-21T01:10:36.080Z,12.9
2014-06-21T01:10:54.486Z,12.9
2014-06-21T01:11:12.879Z,13
2014-06-21T01:11:31.269Z,12.9
2014-06-21T01:11:49.676Z,13
2014-06-21T01:12:08.068Z,13
2014-06-21T01:12:26.459Z,13
2014-06-21T01:12:44.865Z,13
2014-06-21T01:13:03.257Z,13
2014-06-21T01:13:21.647Z,13
2014-06-21T01:13:40.038Z,13
2014-06-21T01:13:58.444Z,13
2014-06-21T01:14:16.838Z,13
2014-06-21T01:14:35.244Z,13
2014-06-21T01:14:53.635Z,12.9
2014-06-21T01:15:12.042Z,12.9
2014-06-21T01:15:30.433Z,12.9
2014-06-21T01:15:48.839Z,12.9
2014-06-21T01:16:07.232Z,13
2014-06-21T01:16:25.638Z,12.9
2014-06-21T01:16:44.044Z,12.9
2014-06-21T01:17:02.435Z,12.9
2014-06-21T01:17:20.827Z,12.9
2014-06-21T01:17:39.234Z,13
2014-06-21T01:17:57.624Z,12.9
2014-06-21T01:18:16.032Z,12.9
2014-06-21T01:18:34.423Z,12.9
2014-06-21T01:18:52.829Z,12.9
2014-06-21T01:19:11.239Z,12.9
2014-06-21T01:19:29.629Z,12.9
2014-06-21T01:19:48.020Z,12.9
2014-06-21T01:20:06.427Z,12.9
2014-06-21T01:20:24.818Z,12.9
2014-06-21T01:20:43.224Z,12.9
2014-06-21T01:21:01.615Z,12.9
2014-06-21T01:21:20.023Z,12.9
2014-06-21T01:21:38.413Z,12.9
2014-06-21T01:21:56.820Z,12.9
2014-06-21T01:22:15.212Z,12.9
2014-06-21T01:22:33.619Z,12.9
2014-06-21T01:22:52.025Z,12.9
2014-06-21T01:23:10.415Z,12.9
2014-06-21T01:23:28.808Z,12.9
2014-06-21T01:23:47.214Z,12.9
2014-06-21T01:24:05.605Z,12.9
2014-06-21T01:24:24.013Z,12.9
2014-06-21T01:24:42.419Z,12.8
2014-06-21T01:25:00.810Z,12.8
2014-06-21T01:25:19.216Z,12.8
2014-06-21T01:25:37.609Z,12.8
2014-06-21T01:25:56.015Z,12.8
2014-06-21T01:26:14.406Z,12.8
2014-06-21T01:26:32.814Z,12.8
2014-06-21T01:26:51.205Z,12.7
2014-06-21T01:27:09.611Z,12.7
2014-06-21T01:27:28.002Z,12.7
2014-06-21T01:27:46.410Z,12.7
2014-06-21T01:28:04.800Z,12.7
2014-06-21T01:28:23.207Z,12.7
2014-06-21T01:28:41.600Z,12.6
2014-06-21T01:29:00.007Z,12.7
2014-06-21T01:29:18.397Z,12.7
2014-06-21T01:29:36.803Z,12.7
2014-06-21T01:29:55.195Z,12.6
2014-06-21T01:30:13.601Z,12.6
2014-06-21T01:30:31.992Z,12.6
2014-06-21T01:30:50.401Z,12.6
2014-06-21T01:31:08.792Z,12.7
2014-06-21T01:31:27.198Z,12.7
2014-06-21T01:31:45.589Z,12.7
2014-06-21T01:32:03.997Z,12.7
2014-06-21T01:32:22.388Z,12.7
2014-06-21T01:32:40.794Z,12.7
2014-06-21T01:32:59.186Z,12.7
2014-06-21T01:33:17.593Z,12.7
2014-06-21T01:33:35.983Z,12.7
2014-06-21T01:33:54.390Z,12.7
2014-06-21T01:34:12.782Z,12.7
2014-06-21T01:34:31.188Z,12.7
2014-06-21T01:34:49.579Z,12.7
2014-06-21T01:35:07.972Z,12.8
2014-06-21T01:35:26.378Z,12.8
2014-06-21T01:35:44.769Z,12.8
2014-06-21T01:36:03.175Z,12.8
2014-06-21T01:36:21.567Z,12.8
2014-06-21T01:36:39.974Z,12.8
2014-06-21T01:36:58.364Z,12.8
2014-06-21T01:37:16.773Z,12.8
2014-06-21T01:37:35.163Z,12.8
2014-06-21T01:37:53.569Z,12.8
2014-06-21T01:38:11.962Z,12.8
2014-06-21T01:38:30.368Z,12.8
2014-06-21T01:38:48.759Z,12.7
2014-06-21T01:39:07.166Z,12.7
2014-06-21T01:39:25.557Z,12.7
2014-06-21T01:39:43.963Z,12.7
2014-06-21T01:40:02.354Z,12.7
2014-06-21T01:40:20.746Z,12.7
2014-06-21T01:40:39.153Z,12.7
2014-06-21T01:40:57.543Z,12.7
2014-06-21T01:41:15.951Z,12.7
2014-06-21T01:41:34.342Z,12.7
2014-06-21T01:41:52.748Z,12.7
2014-06-21T01:42:11.141Z,12.6
2014-06-21T01:42:29.547Z,12.7
2014-06-21T01:42:47.938Z,12.7
2014-06-21T01:43:06.346Z,12.7
2014-06-21T01:43:24.737Z,12.7
2014-06-21T01:43:43.127Z,12.7
2014-06-21T01:44:01.534Z,12.7
2014-06-21T01:44:19.926Z,12.7
2014-06-21T01:44:38.332Z,12.7
2014-06-21T01:44:56.723Z,12.7
2014-06-21T01:45:15.131Z,12.7
2014-06-21T01:45:33.522Z,12.7
2014-06-21T01:45:51.928Z,12.7
2014-06-21T01:46:10.321Z,12.6
2014-06-21T01:46:28.711Z,12.7
2014-06-21T01:46:47.118Z,12.7
2014-06-21T01:47:05.510Z,12.7
2014-06-21T01:47:23.917Z,12.7
2014-06-21T01:47:42.307Z,12.7
2014-06-21T01:48:00.713Z,12.7
2014-06-21T01:48:19.106Z,12.7
2014-06-21T01:48:37.512Z,12.7
2014-06-21T01:48:55.903Z,12.7
2014-06-21T01:49:14.311Z,12.6
2014-06-21T01:49:32.717Z,12.7
2014-06-21T01:49:51.108Z,12.7
2014-06-21T01:50:09.501Z,12.7
2014-06-21T01:50:27.907Z,12.7
2014-06-21T01:50:46.298Z,12.7
2014-06-21T01:51:04.706Z,12.7
2014-06-21T01:51:23.096Z,12.7
2014-06-21T01:51:41.503Z,12.7
2014-06-21T01:51:59.893Z,12.7
2014-06-21T01:52:18.301Z,12.7
2014-06-21T01:52:36.691Z,12.7
2014-06-21T01:52:55.097Z,12.7
2014-06-21T01:53:13.490Z,12.7
2014-06-21T01:53:31.896Z,12.7
2014-06-21T01:53:50.287Z,12.7
2014-06-21T01:54:08.695Z,12.7
2014-06-21T01:54:27.101Z,12.7
2014-06-21T01:54:45.508Z,12.7
2014-06-21T01:55:03.914Z,12.7
2014-06-21T01:55:22.307Z,12.6
2014-06-21T01:55:40.713Z,12.6
2014-06-21T01:55:59.119Z,12.5
2014-06-21T01:56:17.512Z,12.5
2014-06-21T01:56:35.918Z,12.4
2014-06-21T01:56:54.324Z,12.4
2014-06-21T01:57:12.732Z,12.3
2014-06-21T01:57:31.123Z,12.2
2014-06-21T01:57:49.529Z,12.2
2014-06-21T01:58:07.938Z,12.1
2014-06-21T01:58:26.328Z,12.1
2014-06-21T01:58:44.734Z,12.1
2014-06-21T01:59:03.141Z,12
2014-06-21T01:59:21.549Z,12
2014-06-21T01:59:39.940Z,11.9
2014-06-21T01:59:58.346Z,11.9
2014-06-21T02:00:16.738Z,11.9
2014-06-21T02:00:35.145Z,11.8
2014-06-21T02:00:53.551Z,11.8
2014-06-21T02:01:11.959Z,11.8
2014-06-21T02:01:30.350Z,11.8
2014-06-21T02:01:48.756Z,11.8
2014-06-21T02:02:07.164Z,11.8
2014-06-21T02:02:25.571Z,11.8
2014-06-21T02:02:43.961Z,11.8
2014-06-21T02:03:02.367Z,11.8
2014-06-21T02:03:20.775Z,11.8
2014-06-21T02:03:39.368Z,11.8
2014-06-21T02:03:57.572Z,11.9
2014-06-21T02:04:15.980Z,11.9
2014-06-21T02:04:34.370Z,11.9
2014-06-21T02:04:52.777Z,11.9
2014-06-21T02:05:11.185Z,12
2014-06-21T02:05:29.576Z,12
2014-06-21T02:05:47.982Z,12
2014-06-21T02:06:06.374Z,12
2014-06-21T02:06:24.781Z,12
2014-06-21T02:06:43.171Z,12.1
2014-06-21T02:07:01.578Z,12.1
2014-06-21T02:07:19.986Z,12.1
2014-06-21T02:07:38.376Z,12.2
2014-06-21T02:07:56.783Z,12.2
2014-06-21T02:08:15.176Z,12.2
2014-06-21T02:08:33.583Z,12.2
2014-06-21T02:08:51.989Z,12.3
2014-06-21T02:09:10.380Z,12.3
2014-06-21T02:09:28.787Z,12.3
2014-06-21T02:09:47.193Z,12.3
2014-06-21T02:10:05.584Z,12.3
2014-06-21T02:10:23.992Z,12.3
2014-06-21T02:10:42.398Z,12.3
2014-06-21T02:11:00.789Z,12.3
2014-06-21T02:11:19.197Z,12.3
2014-06-21T02:11:37.588Z,12.3
2014-06-21T02:11:55.994Z,12.3
2014-06-21T02:12:14.400Z,12.3
2014-06-21T02:12:32.794Z,12.3
2014-06-21T02:12:51.200Z,12.4
2014-06-21T02:13:09.622Z,12.4
2014-06-21T02:13:28.014Z,12.4
2014-06-21T02:13:46.421Z,12.4
2014-06-21T02:14:04.811Z,12.4
2014-06-21T02:14:23.218Z,12.4
2014-06-21T02:14:41.610Z,12.4
2014-06-21T02:15:00.016Z,12.4
2014-06-21T02:15:18.423Z,12.5
2014-06-21T02:15:36.815Z,12.5
2014-06-21T02:15:55.222Z,12.5
2014-06-21T02:16:13.628Z,12.5
2014-06-21T02:16:32.034Z,12.5
2014-06-21T02:16:50.442Z,12.5
2014-06-21T02:17:08.833Z,12.5
2014-06-21T02:17:27.239Z,12.5
2014-06-21T02:17:45.647Z,12.5
2014-06-21T02:18:04.054Z,12.5
2014-06-21T02:18:22.460Z,12.5
2014-06-21T02:18:40.866Z,12.5
2014-06-21T02:18:59.273Z,12.5
2014-06-21T02:19:17.664Z,12.5
2014-06-21T02:19:36.070Z,12.5
2014-06-21T02:19:54.480Z,12.4
2014-06-21T02:20:12.886Z,12.4
2014-06-21T02:20:31.276Z,12.4
2014-06-21T02:20:49.683Z,12.4
2014-06-21T02:21:08.091Z,12.4
2014-06-21T02:21:26.497Z,12.4
2014-06-21T02:21:44.888Z,12.3
2014-06-21T02:22:03.296Z,12.3
2014-06-21T02:22:21.702Z,12.3
2014-06-21T02:22:40.109Z,12.2
2014-06-21T02:22:58.515Z,12.2
2014-06-21T02:23:16.907Z,12.2
2014-06-21T02:23:35.314Z,12.1
2014-06-21T02:23:53.720Z,12.1
2014-06-21T02:24:12.113Z,12
2014-06-21T02:24:30.519Z,12
2014-06-21T02:24:48.925Z,11.9
2014-06-21T02:25:07.333Z,11.9
2014-06-21T02:25:25.740Z,11.8
2014-06-21T02:25:44.130Z,11.8
2014-06-21T02:26:02.536Z,11.8
2014-06-21T02:26:20.945Z,11.7
2014-06-21T02:26:39.351Z,11.7
2014-06-21T02:26:57.757Z,11.6
2014-06-21T02:27:16.165Z,11.6
2014-06-21T02:27:34.556Z,11.6
2014-06-21T02:27:52.962Z,11.6
2014-06-21T02:28:11.371Z,11.6
2014-06-21T02:28:29.777Z,11.5
2014-06-21T02:28:48.183Z,11.5
2014-06-21T02:29:06.575Z,11.5
2014-06-21T02:29:24.997Z,11.5
2014-06-21T02:29:43.387Z,11.4
2014-06-21T02:30:01.793Z,11.4
2014-06-21T02:30:20.186Z,11.4
2014-06-21T02:30:38.592Z,11.4
2014-06-21T02:30:56.999Z,11.4
2014-06-21T02:31:15.407Z,11.4
2014-06-21T02:31:33.813Z,11.4
2014-06-21T02:31:52.219Z,11.4
2014-06-21T02:32:10.628Z,11.4
2014-06-21T02:32:29.034Z,11.3
2014-06-21T02:32:47.424Z,11.3
2014-06-21T02:33:05.834Z,11.3
2014-06-21T02:33:24.209Z,11.3
2014-06-21T02:33:42.646Z,11.3
2014-06-21T02:34:01.052Z,11.3
2014-06-21T02:34:19.445Z,11.3
2014-06-21T02:34:37.851Z,11.3
2014-06-21T02:34:56.258Z,11.3
2014-06-21T02:35:14.665Z,11.3
2014-06-21T02:35:33.071Z,11.3
2014-06-21T02:35:51.462Z,11.3
2014-06-21T02:36:09.870Z,11.3
2014-06-21T02:36:28.276Z,11.3
2014-06-21T02:36:46.682Z,11.3
2014-06-21T02:37:05.089Z,11.3
2014-06-21T02:37:23.497Z,11.3
2014-06-21T02:37:41.919Z,11.3
2014-06-21T02:38:00.294Z,11.3
2014-06-21T02:38:18.702Z,11.3
2014-06-21T02:38:37.108Z,11.3
2014-06-21T02:38:55.499Z,11.4
2014-06-21T02:39:13.923Z,11.4
2014-06-21T02:39:32.313Z,11.4
2014-06-21T02:39:50.720Z,11.4
2014-06-21T02:40:09.128Z,11.4
2014-06-21T02:40:27.534Z,11.4
2014-06-21T02:40:45.940Z,11.4
2014-06-21T02:41:04.331Z,11.4
2014-06-21T02:41:22.739Z,11.5
2014-06-21T02:41:41.146Z,11.5
2014-06-21T02:41:59.552Z,11.5
2014-06-21T02:42:17.959Z,11.5
2014-06-21T02:42:36.365Z,11.6
2014-06-21T02:42:54.756Z,11.6
2014-06-21T02:43:13.180Z,11.7
2014-06-21T02:43:31.570Z,11.7
2014-06-21T02:43:49.977Z,11.8
2014-06-21T02:44:08.386Z,11.8
2014-06-21T02:44:26.792Z,11.9
2014-06-21T02:44:45.198Z,11.9
2014-06-21T02:45:03.589Z,12
2014-06-21T02:45:21.996Z,12
2014-06-21T02:45:40.403Z,12.1
2014-06-21T02:45:58.809Z,12.1
2014-06-21T02:46:17.218Z,12.2
2014-06-21T02:46:35.609Z,12.2
2014-06-21T02:46:54.015Z,12.2
2014-06-21T02:47:12.422Z,12.3
2014-06-21T02:47:30.828Z,12.3
2014-06-21T02:47:49.219Z,12.3
2014-06-21T02:48:07.625Z,12.3
2014-06-21T02:48:26.035Z,12.3
2014-06-21T02:48:44.441Z,12.3
2014-06-21T02:49:02.847Z,12.4
2014-06-21T02:49:21.255Z,12.4
2014-06-21T02:49:39.646Z,12.4
2014-06-21T02:49:58.052Z,12.4
2014-06-21T02:50:16.458Z,12.4
2014-06-21T02:50:34.867Z,12.4
2014-06-21T02:50:53.273Z,12.4
2014-06-21T02:51:11.664Z,12.5
2014-06-21T02:51:30.087Z,12.5
2014-06-21T02:51:48.494Z,12.5
2014-06-21T02:52:06.884Z,12.5
2014-06-21T02:52:25.291Z,12.6
2014-06-21T02:52:43.698Z,12.6
2014-06-21T02:53:02.104Z,12.6
2014-06-21T02:53:20.510Z,12.6
2014-06-21T02:53:38.920Z,12.6
2014-06-21T02:53:57.310Z,12.7
2014-06-21T02:54:15.716Z,12.7
2014-06-21T02:54:34.123Z,12.7
2014-06-21T02:54:52.531Z,12.7
2014-06-21T02:55:10.937Z,12.7
2014-06-21T02:55:29.328Z,12.7
2014-06-21T02:55:47.736Z,12.7
2014-06-21T02:56:06.142Z,12.6
2014-06-21T02:56:24.549Z,12.6
2014-06-21T02:56:42.955Z,12.6
2014-06-21T02:57:01.363Z,12.5
2014-06-21T02:57:19.754Z,12.5
2014-06-21T02:57:38.160Z,12.5
2014-06-21T02:57:56.568Z,12.4
2014-06-21T02:58:14.974Z,12.4
2014-06-21T02:58:33.365Z,12.3
2014-06-21T02:58:51.787Z,12.3
2014-06-21T02:59:10.180Z,12.3
2014-06-21T02:59:28.586Z,12.2
2014-06-21T02:59:46.992Z,12.2
2014-06-21T03:00:05.400Z,12.2
2014-06-21T03:00:23.807Z,12.2
2014-06-21T03:00:42.197Z,12.2
2014-06-21T03:01:00.603Z,12.2
2014-06-21T03:01:19.013Z,12.2
2014-06-21T03:01:37.419Z,12.2
2014-06-21T03:01:55.825Z,12.2
2014-06-21T03:02:14.201Z,12.3
2014-06-21T03:02:32.639Z,12.3
2014-06-21T03:02:51.029Z,12.3
2014-06-21T03:03:09.438Z,12.4
2014-06-21T03:03:27.844Z,12.4
2014-06-21T03:03:46.250Z,12.4
2014-06-21T03:04:04.641Z,12.5
2014-06-21T03:04:23.049Z,12.5
2014-06-21T03:04:41.471Z,12.5
2014-06-21T03:04:59.861Z,12.6
2014-06-21T03:05:18.270Z,12.6
2014-06-21T03:05:36.676Z,12.6
2014-06-21T03:05:55.082Z,12.6
2014-06-21T03:06:13.490Z,12.7
2014-06-21T03:06:31.897Z,12.7
2014-06-21T03:06:50.303Z,12.7
2014-06-21T03:07:08.695Z,12.7
2014-06-21T03:07:27.101Z,12.8
2014-06-21T03:07:45.507Z,12.8
2014-06-21T03:08:03.913Z,12.8
2014-06-21T03:08:22.306Z,12.9
2014-06-21T03:08:40.728Z,12.9
2014-06-21T03:08:59.118Z,12.9
2014-06-21T03:09:17.527Z,12.9
2014-06-21T03:09:35.933Z,12.9
2014-06-21T03:09:54.339Z,12.9
2014-06-21T03:10:12.747Z,12.8
2014-06-21T03:10:31.154Z,12.8
2014-06-21T03:10:49.544Z,12.8
2014-06-21T03:11:07.953Z,12.8
2014-06-21T03:11:26.359Z,12.8
2014-06-21T03:11:44.765Z,12.8
2014-06-21T03:12:03.171Z,12.7
2014-06-21T03:12:21.580Z,12.7
2014-06-21T03:12:39.970Z,12.7
2014-06-21T03:12:58.376Z,12.7
2014-06-21T03:13:16.785Z,12.7
2014-06-21T03:13:35.191Z,12.7
2014-06-21T03:13:53.597Z,12.7
2014-06-21T03:14:11.990Z,12.7
2014-06-21T03:14:30.396Z,12.7
2014-06-21T03:14:48.802Z,12.7
2014-06-21T03:15:07.209Z,12.6
2014-06-21T03:15:25.601Z,12.6
2014-06-21T03:15:44.007Z,12.6
2014-06-21T03:16:02.414Z,12.6
2014-06-21T03:16:20.822Z,12.6
2014-06-21T03:16:39.228Z,12.6
2014-06-21T03:16:57.619Z,12.6
2014-06-21T03:17:16.027Z,12.6
2014-06-21T03:17:34.433Z,12.6
2014-06-21T03:17:52.840Z,12.6
2014-06-21T03:18:11.248Z,12.6
2014-06-21T03:18:29.638Z,12.6
2014-06-21T03:18:48.045Z,12.6
2014-06-21T03:19:06.451Z,12.6
2014-06-21T03:19:24.859Z,12.6
2014-06-21T03:19:43.250Z,12.6
2014-06-21T03:20:01.656Z,12.6
2014-06-21T03:20:20.064Z,12.6
2014-06-21T03:20:38.471Z,12.6
2014-06-21T03:20:56.877Z,12.6
2014-06-21T03:21:15.269Z,12.6
2014-06-21T03:21:33.676Z,12.6
2014-06-21T03:21:52.082Z,12.6
2014-06-21T03:22:10.475Z,12.6
2014-06-21T03:22:28.881Z,12.6
2014-06-21T03:22:47.287Z,12.6
2014-06-21T03:23:05.693Z,12.6
2014-06-21T03:23:24.101Z,12.6
2014-06-21T03:23:42.507Z,12.6
2014-06-21T03:24:00.897Z,12.6
2014-06-21T03:24:19.306Z,12.6
2014-06-21T03:24:37.712Z,12.6
2014-06-21T03:24:56.118Z,12.6
2014-06-21T03:25:14.511Z,12.6
2014-06-21T03:25:32.917Z,12.6
2014-06-21T03:25:51.323Z,12.6
2014-06-21T03:26:09.732Z,12.6
2014-06-21T03:26:28.153Z,12.7
2014-06-21T03:26:46.560Z,12.7
2014-06-21T03:27:04.950Z,12.7
2014-06-21T03:27:23.359Z,12.7
2014-06-21T03:27:41.765Z,12.7
2014-06-21T03:28:00.171Z,12.7
2014-06-21T03:28:18.564Z,12.8
2014-06-21T03:28:36.970Z,12.8
2014-06-21T03:28:55.376Z,12.8
2014-06-21T03:29:13.783Z,12.9
2014-06-21T03:29:32.190Z,12.9
2014-06-21T03:29:50.596Z,12.9
2014-06-21T03:30:08.989Z,13
2014-06-21T03:30:27.395Z,13
2014-06-21T03:30:45.801Z,13
2014-06-21T03:31:04.176Z,13.1
2014-06-21T03:31:22.617Z,13.1
2014-06-21T03:31:41.007Z,13.1
2014-06-21T03:31:59.413Z,13.2
2014-06-21T03:32:17.822Z,13.2
2014-06-21T03:32:36.228Z,13.2
2014-06-21T03:32:54.634Z,13.2
2014-06-21T03:33:13.026Z,13.3
2014-06-21T03:33:31.432Z,13.3
2014-06-21T03:33:49.838Z,13.3
2014-06-21T03:34:08.231Z,13.3
2014-06-21T03:34:26.637Z,13.4
2014-06-21T03:34:45.043Z,13.4
2014-06-21T03:35:03.450Z,13.4
2014-06-21T03:35:21.858Z,13.4
2014-06-21T03:35:40.264Z,13.4
2014-06-21T03:35:58.655Z,13.5
2014-06-21T03:36:17.063Z,13.5
2014-06-21T03:36:35.469Z,13.5
2014-06-21T03:36:53.876Z,13.5
2014-06-21T03:37:12.269Z,13.5
2014-06-21T03:37:30.675Z,13.6
2014-06-21T03:37:49.082Z,13.6
2014-06-21T03:38:07.488Z,13.6
2014-06-21T03:38:25.896Z,13.6
2014-06-21T03:38:44.287Z,13.6
2014-06-21T03:39:02.693Z,13.7
2014-06-21T03:39:21.100Z,13.7
2014-06-21T03:39:39.507Z,13.7
2014-06-21T03:39:57.913Z,13.7
2014-06-21T03:40:16.321Z,13.7
2014-06-21T03:40:34.727Z,13.7
2014-06-21T03:40:53.118Z,13.7
2014-06-21T03:41:11.526Z,13.7
2014-06-21T03:41:29.932Z,13.7
2014-06-21T03:41:48.339Z,13.7
2014-06-21T03:42:06.745Z,13.7
2014-06-21T03:42:25.138Z,13.7
2014-06-21T03:42:43.544Z,13.6
2014-06-21T03:43:01.950Z,13.6
2014-06-21T03:43:20.358Z,13.6
2014-06-21T03:43:38.765Z,13.6
2014-06-21T03:43:57.171Z,13.6
2014-06-21T03:44:15.563Z,13.6
2014-06-21T03:44:33.970Z,13.6
2014-06-21T03:44:52.376Z,13.6
2014-06-21T03:45:10.784Z,13.6
2014-06-21T03:45:29.190Z,13.6
2014-06-21T03:45:47.581Z,13.6
2014-06-21T03:46:05.987Z,13.6
2014-06-21T03:46:24.396Z,13.6
2014-06-21T03:46:42.802Z,13.6
2014-06-21T03:47:01.208Z,13.6
2014-06-21T03:47:19.600Z,13.6
2014-06-21T03:47:38.006Z,13.6
2014-06-21T03:47:56.412Z,13.6
2014-06-21T03:48:14.820Z,13.6
2014-06-21T03:48:33.211Z,13.6
2014-06-21T03:48:51.617Z,13.6
2014-06-21T03:49:10.027Z,13.6
2014-06-21T03:49:28.433Z,13.6
2014-06-21T03:49:46.823Z,13.7
2014-06-21T03:50:05.230Z,13.7
2014-06-21T03:50:23.637Z,13.7
2014-06-21T03:50:42.043Z,13.7
2014-06-21T03:51:00.434Z,13.7
2014-06-21T03:51:18.842Z,13.7
2014-06-21T03:51:37.248Z,13.7
2014-06-21T03:51:55.655Z,13.7
2014-06-21T03:52:14.063Z,13.7
2014-06-21T03:52:32.453Z,13.7
2014-06-21T03:52:50.860Z,13.7
2014-06-21T03:53:09.250Z,13.7
2014-06-21T03:53:27.674Z,13.7
2014-06-21T03:53:46.080Z,13.7
2014-06-21T03:54:04.471Z,13.7
2014-06-21T03:54:22.879Z,13.7
2014-06-21T03:54:41.286Z,13.7
2014-06-21T03:54:59.676Z,13.7
2014-06-21T03:55:18.084Z,13.7
2014-06-21T03:55:36.491Z,13.7
2014-06-21T03:55:54.897Z,13.7
2014-06-21T03:56:13.305Z,13.7
2014-06-21T03:56:31.696Z,13.7
2014-06-21T03:56:50.102Z,13.7
2014-06-21T03:57:08.508Z,13.7
2014-06-21T03:57:26.917Z,13.7
2014-06-21T03:57:45.323Z,13.7
2014-06-21T03:58:03.713Z,13.7
2014-06-21T03:58:22.122Z,13.7
2014-06-21T03:58:40.528Z,13.7
2014-06-21T03:58:58.934Z,13.7
2014-06-21T03:59:17.368Z,13.7
2014-06-21T03:59:35.775Z,13.7
2014-06-21T03:59:54.181Z,13.7
2014-06-21T04:00:12.627Z,13.7
2014-06-21T04:00:31.018Z,13.7
2014-06-21T04:00:49.424Z,13.7
2014-06-21T04:01:07.830Z,13.7
2014-06-21T04:01:26.279Z,13.6
2014-06-21T04:01:44.685Z,13.6
2014-06-21T04:02:03.075Z,13.6
2014-06-21T04:02:21.522Z,13.6
2014-06-21T04:02:39.944Z,13.6
2014-06-21T04:02:58.334Z,13.6
2014-06-21T04:03:16.781Z,13.6
2014-06-21T04:03:35.188Z,13.7
2014-06-21T04:03:53.594Z,13.7
2014-06-21T04:04:12.025Z,13.7
2014-06-21T04:04:30.431Z,13.7
2014-06-21T04:04:48.822Z,13.7
2014-06-21T04:05:07.228Z,13.7
2014-06-21T04:05:25.652Z,13.8
2014-06-21T04:05:44.058Z,13.8
2014-06-21T04:06:02.464Z,13.8